Sommer S — WDG3830 — position and weather

sailwx.info

Track history (hours):
 
Tides and Currents Weather Stations Pressure Air Temp Water Temp Dewpoint Dewpoint Depression Visibility Wind Speed Wind Dir Waves Ship Positions

Sommer S

More information available from US FCC via Universal Licensing System and Coast Guard Vessel Documentation Center.

Last reported at 2014-Sep-01 23:06 UTC. Time now 2014-Sep-03 00:12 UTC.
Position N 45°38' W 122°43'.

Length 25 m.

Type: Tug. MMSI: 367530080.

Date/timePositionNaut miles runAvg speedWind from/ knotsBaromVisibWave heightAir tempDewpointWater temp
2014-Sep-01 23:06N 45°38' W 122°43'3 5.6
2014-Sep-01 22:33N 45°37' W 122°39'0 0.3
2014-Sep-01 21:32N 45°37' W 122°39'1 0.1
2014-Sep-01 14:22N 45°37' W 122°40'1 1.6
2014-Sep-01 13:33N 45°37' W 122°39'0 0.2
2014-Sep-01 12:33N 45°37' W 122°39'2 0.0
2014-Aug-31 00:33N 45°37' W 122°41'1 0.3
2014-Aug-30 22:16N 45°38' W 122°42'0 0.0
2014-Aug-29 14:33N 45°38' W 122°42'0 0.0
2014-Aug-29 09:05N 45°38' W 122°42'1 1.2
2014-Aug-29 08:17N 45°38' W 122°43'1 0.0
2014-Aug-28 16:33N 45°38' W 122°42'4 0.1
2014-Aug-26 14:30N 45°36' W 122°47'  
Track history (hours):
 
Tides and Currents Weather Stations Pressure Air Temp Water Temp Dewpoint Dewpoint Depression Visibility Wind Speed Wind Dir Waves Ship Positions

Sommer S

More information available from US FCC via Universal Licensing System and Coast Guard Vessel Documentation Center.

Last reported at 2014-Sep-01 23:06 UTC. Time now 2014-Sep-03 00:12 UTC.
Position N 45°38' W 122°43'.

Length 25 m.

Type: Tug. MMSI: 367530080.

Date/timePositionNaut miles runAvg speedWind from/ knotsBaromVisibWave heightAir tempDewpointWater temp
2014-Sep-01 23:06N 45°38' W 122°43'3 5.6
2014-Sep-01 22:33N 45°37' W 122°39'0 0.3
2014-Sep-01 21:32N 45°37' W 122°39'1 0.1
2014-Sep-01 14:22N 45°37' W 122°40'1 1.6
2014-Sep-01 13:33N 45°37' W 122°39'0 0.2
2014-Sep-01 12:33N 45°37' W 122°39'2 0.0
2014-Aug-31 00:33N 45°37' W 122°41'1 0.3
2014-Aug-30 22:16N 45°38' W 122°42'0 0.0
2014-Aug-29 14:33N 45°38' W 122°42'0 0.0
2014-Aug-29 09:05N 45°38' W 122°42'1 1.2
2014-Aug-29 08:17N 45°38' W 122°43'1 0.0
2014-Aug-28 16:33N 45°38' W 122°42'4 0.1
2014-Aug-26 14:30N 45°36' W 122°47'  

Dump ship's entire track history